createdAt,value
2023-03-01T00:01:42.635Z,2.60
2023-03-01T00:04:28.669Z,2.70
2023-03-01T00:07:14.368Z,2.60
2023-03-01T00:10:00.822Z,2.60
2023-03-01T00:12:46.304Z,2.60
2023-03-01T00:15:32.032Z,2.70
2023-03-01T00:18:17.187Z,2.80
2023-03-01T00:21:02.898Z,2.70
2023-03-01T00:23:49.585Z,2.70
2023-03-01T00:26:37.271Z,2.50
2023-03-01T00:29:23.644Z,2.50
2023-03-01T00:32:09.558Z,2.50
2023-03-01T00:34:57.263Z,2.40
2023-03-01T00:37:43.473Z,2.50
2023-03-01T00:40:29.714Z,2.50
2023-03-01T00:43:16.688Z,2.40
2023-03-01T00:46:02.203Z,2.30
2023-03-01T00:48:48.400Z,2.30
2023-03-01T00:51:34.886Z,2.30
2023-03-01T00:54:20.315Z,2.30
2023-03-01T00:57:06.449Z,2.30
2023-03-01T00:59:53.366Z,2.30
2023-03-01T01:02:39.046Z,2.30
2023-03-01T01:05:25.665Z,2.30
2023-03-01T01:08:12.429Z,2.20
2023-03-01T01:10:57.682Z,2.20
2023-03-01T01:13:44.716Z,2.20
2023-03-01T01:16:32.511Z,2.20
2023-03-01T01:19:18.520Z,2.20
2023-03-01T01:22:04.334Z,2.10
2023-03-01T01:24:51.098Z,2.10
2023-03-01T01:27:36.695Z,2.10
2023-03-01T01:30:22.278Z,2.10
2023-03-01T01:33:09.495Z,2.10
2023-03-01T01:35:55.027Z,2.10
2023-03-01T01:38:40.663Z,2.10
2023-03-01T01:41:26.767Z,2.00
2023-03-01T01:44:13.981Z,2.00
2023-03-01T01:47:00.962Z,2.00
2023-03-01T01:49:49.740Z,2.00
2023-03-01T01:52:36.809Z,1.90
2023-03-01T01:55:23.893Z,2.00
2023-03-01T01:58:11.989Z,2.00
2023-03-01T02:00:57.684Z,1.90
2023-03-01T02:03:44.551Z,1.90
2023-03-01T02:06:33.806Z,1.90
2023-03-01T02:09:21.184Z,1.90
2023-03-01T02:12:06.649Z,1.90
2023-03-01T02:14:53.303Z,1.90
2023-03-01T02:17:39.276Z,1.80
2023-03-01T02:20:27.964Z,1.80
2023-03-01T02:23:14.950Z,1.80
2023-03-01T02:26:08.317Z,1.80
2023-03-01T02:28:56.025Z,1.80
2023-03-01T02:31:44.436Z,1.70
2023-03-01T02:34:31.531Z,1.70
2023-03-01T02:37:21.507Z,1.60
2023-03-01T02:40:12.627Z,1.70
2023-03-01T02:42:59.574Z,1.70
2023-03-01T02:45:51.062Z,1.60
2023-03-01T02:48:44.444Z,1.60
2023-03-01T02:51:39.149Z,1.60
2023-03-01T02:54:26.345Z,1.60
2023-03-01T02:57:12.473Z,1.60
2023-03-01T03:00:00.557Z,1.60
2023-03-01T03:02:47.766Z,1.60
2023-03-01T03:05:36.858Z,1.50
2023-03-01T03:08:25.186Z,1.50
2023-03-01T03:11:11.534Z,1.50
2023-03-01T03:13:57.184Z,1.40
2023-03-01T03:16:43.332Z,1.40
2023-03-01T03:19:30.757Z,1.50
2023-03-01T03:22:16.283Z,1.50
2023-03-01T03:25:01.736Z,1.50
2023-03-01T03:27:48.748Z,1.40
2023-03-01T03:30:34.166Z,1.40
2023-03-01T03:33:19.320Z,1.40
2023-03-01T03:36:06.911Z,1.40
2023-03-01T03:38:52.354Z,1.40
2023-03-01T03:41:37.936Z,1.40
2023-03-01T03:44:23.120Z,1.40
2023-03-01T03:47:08.638Z,1.40
2023-03-01T03:49:53.987Z,1.50
2023-03-01T03:52:40.855Z,1.40
2023-03-01T03:55:30.941Z,1.30
2023-03-01T03:58:17.308Z,1.30
2023-03-01T04:01:02.680Z,1.30
2023-03-01T04:03:48.328Z,1.30
2023-03-01T04:06:34.006Z,1.30
2023-03-01T04:09:20.857Z,1.20
2023-03-01T04:12:06.553Z,1.20
2023-03-01T04:14:51.760Z,1.20
2023-03-01T04:17:37.375Z,1.20
2023-03-01T04:20:26.652Z,1.20
2023-03-01T04:23:14.344Z,1.20
2023-03-01T04:26:01.212Z,1.20
2023-03-01T04:28:47.157Z,1.10
2023-03-01T04:31:32.625Z,1.10
2023-03-01T04:34:17.975Z,1.10
2023-03-01T04:37:03.819Z,1.00
2023-03-01T04:39:49.244Z,1.10
2023-03-01T04:42:36.035Z,1.10
2023-03-01T04:45:21.829Z,1.10
2023-03-01T04:48:07.603Z,1.10
2023-03-01T04:50:53.102Z,1.00
2023-03-01T04:53:38.610Z,1.00
2023-03-01T04:56:24.102Z,1.00
2023-03-01T04:59:13.632Z,0.90
2023-03-01T05:02:01.380Z,0.90
2023-03-01T05:04:46.737Z,0.90
2023-03-01T05:07:32.307Z,0.90
2023-03-01T05:10:18.123Z,0.90
2023-03-01T05:13:04.239Z,0.90
2023-03-01T05:15:54.625Z,0.90
2023-03-01T05:18:41.016Z,0.80
2023-03-01T05:21:26.836Z,0.80
2023-03-01T05:24:12.630Z,0.80
2023-03-01T05:26:58.089Z,0.80
2023-03-01T05:29:43.606Z,0.80
2023-03-01T05:32:33.042Z,0.80
2023-03-01T05:35:18.896Z,0.80
2023-03-01T05:38:04.606Z,0.80
2023-03-01T05:40:50.214Z,0.90
2023-03-01T05:43:35.773Z,0.80
2023-03-01T05:46:21.324Z,0.80
2023-03-01T05:49:08.541Z,0.80
2023-03-01T05:51:54.450Z,0.70
2023-03-01T05:54:39.680Z,0.80
2023-03-01T05:57:25.066Z,0.80
2023-03-01T06:00:11.172Z,0.80
2023-03-01T06:03:00.059Z,0.80
2023-03-01T06:05:46.961Z,0.70
2023-03-01T06:08:32.646Z,0.80
2023-03-01T06:11:18.282Z,0.80
2023-03-01T06:14:03.919Z,0.80
2023-03-01T06:16:49.893Z,0.80
2023-03-01T06:19:35.652Z,0.80
2023-03-01T06:22:22.543Z,0.90
2023-03-01T06:25:08.720Z,0.80
2023-03-01T06:27:54.465Z,0.80
2023-03-01T06:30:39.792Z,0.80
2023-03-01T06:33:25.538Z,0.80
2023-03-01T06:36:11.128Z,0.80
2023-03-01T06:38:57.903Z,0.90
2023-03-01T06:41:43.355Z,0.80
2023-03-01T06:44:29.283Z,0.80
2023-03-01T06:47:14.885Z,0.90
2023-03-01T06:50:00.363Z,0.90
2023-03-01T06:55:33.156Z,1.20
2023-03-01T06:58:18.820Z,1.90
2023-03-01T07:01:06.596Z,3.00
2023-03-01T07:03:52.241Z,3.80
2023-03-01T07:06:37.875Z,5.00
2023-03-01T07:09:23.924Z,6.10
2023-03-01T07:12:10.969Z,7.10
2023-03-01T07:14:56.605Z,8.00
2023-03-01T07:17:42.213Z,8.90
2023-03-01T07:20:27.777Z,9.10
2023-03-01T07:23:13.470Z,8.60
2023-03-01T07:25:59.191Z,8.10
2023-03-01T07:28:46.012Z,7.70
2023-03-01T07:31:31.661Z,7.50
2023-03-01T07:34:17.258Z,7.40
2023-03-01T07:37:02.930Z,7.50
2023-03-01T07:39:48.443Z,7.40
2023-03-01T07:42:34.299Z,7.50
2023-03-01T07:45:21.411Z,7.80
2023-03-01T07:48:07.028Z,7.90
2023-03-01T07:50:52.315Z,7.70
2023-03-01T07:53:38.141Z,7.80
2023-03-01T07:56:23.898Z,8.10
2023-03-01T07:59:09.515Z,8.40
2023-03-01T08:01:56.790Z,8.60
2023-03-01T08:04:42.479Z,8.50
2023-03-01T08:07:28.132Z,8.80
2023-03-01T08:10:13.663Z,8.90
2023-03-01T08:12:59.107Z,9.30
2023-03-01T08:15:44.999Z,9.80
2023-03-01T08:18:32.406Z,10.40
2023-03-01T08:21:18.899Z,10.80
2023-03-01T08:24:05.093Z,10.70
2023-03-01T08:26:50.353Z,10.70
2023-03-01T08:29:36.679Z,10.30
2023-03-01T08:32:22.490Z,10.30
2023-03-01T08:35:09.782Z,11.10
2023-03-01T08:37:55.687Z,11.50
2023-03-01T08:40:41.500Z,12.40
2023-03-01T08:43:27.031Z,13.70
2023-03-01T08:46:13.329Z,14.00
2023-03-01T08:48:58.931Z,13.70
2023-03-01T08:51:46.312Z,13.30
2023-03-01T08:54:32.082Z,12.40
2023-03-01T08:57:17.742Z,13.10
2023-03-01T09:00:04.567Z,13.40
2023-03-01T09:02:50.380Z,13.50
2023-03-01T09:05:37.787Z,12.70
2023-03-01T09:08:24.851Z,12.40
2023-03-01T09:11:11.691Z,11.90
2023-03-01T09:16:40.979Z,12.50
2023-03-01T09:19:27.558Z,11.90
2023-03-01T09:22:13.002Z,11.70
2023-03-01T09:25:00.089Z,11.40
2023-03-01T09:27:45.373Z,11.80
2023-03-01T09:30:31.390Z,12.10
2023-03-01T09:33:19.986Z,10.50
2023-03-01T09:36:08.201Z,10.70
2023-03-01T09:38:54.327Z,11.60
2023-03-01T09:41:46.450Z,10.60
2023-03-01T09:44:35.532Z,11.00
2023-03-01T09:47:22.650Z,11.00
2023-03-01T09:50:12.995Z,11.50
2023-03-01T09:53:02.108Z,12.50
2023-03-01T09:55:52.092Z,12.00
2023-03-01T09:58:43.124Z,12.50
2023-03-01T10:01:35.758Z,10.00
2023-03-01T10:04:29.401Z,9.40
2023-03-01T10:07:22.744Z,9.90
2023-03-01T10:10:08.933Z,10.90
2023-03-01T10:12:54.830Z,10.70
2023-03-01T10:15:43.112Z,10.20
2023-03-01T10:18:29.933Z,11.30
2023-03-01T10:21:17.905Z,11.00
2023-03-01T10:24:11.498Z,10.70
2023-03-01T10:26:58.223Z,10.60
2023-03-01T10:29:47.324Z,11.30
2023-03-01T10:32:32.933Z,12.70
2023-03-01T10:35:22.401Z,14.20
2023-03-01T10:38:10.115Z,14.70
2023-03-01T10:40:58.922Z,13.10
2023-03-01T10:43:46.144Z,14.00
2023-03-01T10:46:32.918Z,14.40
2023-03-01T10:49:22.089Z,15.50
2023-03-01T10:52:18.793Z,14.70
2023-03-01T10:55:05.953Z,14.10
2023-03-01T10:58:07.090Z,14.00
2023-03-01T11:00:56.490Z,15.40
2023-03-01T11:03:42.231Z,16.30
2023-03-01T11:06:29.251Z,15.50
2023-03-01T11:09:16.701Z,16.70
2023-03-01T11:12:11.415Z,16.50
2023-03-01T11:14:58.397Z,16.30
2023-03-01T11:17:54.568Z,16.30
2023-03-01T11:20:43.063Z,15.20
2023-03-01T11:23:31.736Z,15.90
2023-03-01T11:26:19.474Z,16.50
2023-03-01T11:29:21.026Z,15.80
2023-03-01T11:32:11.277Z,15.00
2023-03-01T11:34:58.968Z,15.00
2023-03-01T11:37:48.170Z,14.50
2023-03-01T11:40:35.447Z,14.90
2023-03-01T11:43:25.538Z,15.60
2023-03-01T11:46:29.474Z,15.60
2023-03-01T11:49:45.076Z,16.30
2023-03-01T11:52:50.847Z,15.30
2023-03-01T11:56:03.021Z,15.80
2023-03-01T11:59:03.659Z,15.60
2023-03-01T12:01:55.675Z,16.00
2023-03-01T12:05:06.391Z,15.30
2023-03-01T12:07:55.121Z,14.00
2023-03-01T12:10:44.320Z,14.40
2023-03-01T12:13:54.759Z,15.40
2023-03-01T12:16:46.382Z,15.20
2023-03-01T12:19:38.046Z,12.80
2023-03-01T12:22:32.167Z,13.60
2023-03-01T12:25:23.009Z,13.40
2023-03-01T12:28:43.104Z,13.30
2023-03-01T12:31:44.880Z,14.20
2023-03-01T12:34:39.233Z,14.60
2023-03-01T12:37:34.560Z,13.70
2023-03-01T12:40:29.159Z,14.00
2023-03-01T12:43:21.705Z,13.10
2023-03-01T12:46:22.239Z,13.20
2023-03-01T12:49:09.443Z,13.60
2023-03-01T12:51:57.647Z,12.30
2023-03-01T12:54:46.141Z,12.00
2023-03-01T12:57:38.372Z,12.00
2023-03-01T13:00:28.838Z,12.10
2023-03-01T13:03:19.515Z,12.00
2023-03-01T13:06:32.285Z,11.70
2023-03-01T13:09:40.218Z,12.10
2023-03-01T13:12:53.222Z,12.20
2023-03-01T13:15:40.482Z,12.80
2023-03-01T13:18:30.560Z,12.70
2023-03-01T13:21:36.040Z,12.40
2023-03-01T13:24:26.213Z,12.60
2023-03-01T13:27:21.256Z,11.60
2023-03-01T13:30:31.580Z,10.40
2023-03-01T13:33:37.430Z,10.40
2023-03-01T13:36:41.768Z,10.40
2023-03-01T13:39:29.302Z,9.10
2023-03-01T13:42:33.098Z,9.20
2023-03-01T13:45:26.724Z,9.50
2023-03-01T13:48:16.808Z,9.90
2023-03-01T13:51:04.301Z,9.50
2023-03-01T13:53:49.646Z,9.80
2023-03-01T13:56:37.676Z,9.30
2023-03-01T13:59:23.605Z,9.40
2023-03-01T14:02:13.367Z,10.00
2023-03-01T14:04:59.332Z,9.90
2023-03-01T14:07:51.906Z,9.90
2023-03-01T14:10:43.785Z,10.00
2023-03-01T14:13:33.833Z,9.90
2023-03-01T14:16:25.298Z,9.90
2023-03-01T14:19:27.686Z,9.60
2023-03-01T14:22:20.940Z,9.80
2023-03-01T14:25:07.551Z,9.90
2023-03-01T14:27:55.942Z,9.80
2023-03-01T14:30:42.498Z,9.90
2023-03-01T14:33:29.760Z,9.80
2023-03-01T14:36:28.210Z,9.40
2023-03-01T14:39:17.764Z,9.50
2023-03-01T14:42:15.411Z,8.90
2023-03-01T14:45:02.212Z,9.00
2023-03-01T14:47:49.935Z,8.70
2023-03-01T14:50:37.527Z,9.00
2023-03-01T14:53:25.826Z,9.10
2023-03-01T14:56:14.121Z,8.60
2023-03-01T14:59:00.311Z,9.20
2023-03-01T15:01:47.028Z,9.10
2023-03-01T15:04:34.719Z,9.40
2023-03-01T15:07:20.789Z,9.50
2023-03-01T15:10:15.847Z,9.10
2023-03-01T15:13:10.975Z,8.40
2023-03-01T15:16:02.355Z,8.60
2023-03-01T15:18:49.044Z,8.90
2023-03-01T15:21:35.648Z,8.80
2023-03-01T15:24:23.711Z,8.70
2023-03-01T15:27:16.481Z,8.50
2023-03-01T15:30:03.188Z,8.30
2023-03-01T15:32:48.942Z,8.60
2023-03-01T15:35:40.903Z,9.10
2023-03-01T15:38:27.911Z,9.50
2023-03-01T15:41:23.825Z,9.50
2023-03-01T15:44:17.701Z,9.60
2023-03-01T15:47:06.851Z,9.50
2023-03-01T15:49:55.409Z,9.50
2023-03-01T15:52:42.199Z,8.90
2023-03-01T15:55:31.560Z,8.80
2023-03-01T15:58:18.226Z,8.90
2023-03-01T16:01:10.799Z,8.70
2023-03-01T16:03:57.455Z,8.50
2023-03-01T16:06:43.211Z,8.30
2023-03-01T16:09:29.142Z,8.40
2023-03-01T16:12:15.582Z,8.70
2023-03-01T16:15:01.172Z,8.40
2023-03-01T16:17:48.075Z,8.10
2023-03-01T16:20:41.086Z,8.50
2023-03-01T16:23:27.057Z,8.40
2023-03-01T16:26:13.893Z,8.40
2023-03-01T16:28:59.826Z,8.30
2023-03-01T16:31:45.725Z,8.10
2023-03-01T16:34:33.101Z,8.40
2023-03-01T16:37:20.228Z,8.00
2023-03-01T16:40:08.535Z,7.70
2023-03-01T16:42:56.169Z,7.70
2023-03-01T16:45:45.461Z,7.90
2023-03-01T16:48:31.338Z,7.70
2023-03-01T16:51:18.964Z,7.80
2023-03-01T16:54:05.665Z,7.80
2023-03-01T16:56:51.312Z,7.80
2023-03-01T16:59:38.302Z,7.50
2023-03-01T17:02:23.985Z,7.50
2023-03-01T17:05:11.000Z,7.60
2023-03-01T17:08:00.826Z,7.40
2023-03-01T17:10:46.752Z,7.20
2023-03-01T17:13:33.033Z,6.90
2023-03-01T17:16:20.271Z,6.80
2023-03-01T17:19:06.338Z,6.80
2023-03-01T17:21:52.111Z,7.00
2023-03-01T17:24:39.940Z,7.00
2023-03-01T17:27:25.739Z,7.30
2023-03-01T17:30:12.673Z,7.80
2023-03-01T17:32:58.779Z,8.20
2023-03-01T17:35:47.145Z,8.20
2023-03-01T17:38:32.853Z,8.60
2023-03-01T17:41:20.610Z,8.40
2023-03-01T17:44:06.488Z,8.20
2023-03-01T17:46:52.056Z,8.10
2023-03-01T17:49:37.785Z,7.90
2023-03-01T17:52:23.798Z,8.10
2023-03-01T17:55:10.409Z,7.80
2023-03-01T17:57:57.317Z,7.50
2023-03-01T18:00:42.930Z,7.10
2023-03-01T18:03:28.652Z,7.30
2023-03-01T18:06:14.811Z,7.50
2023-03-01T18:09:00.225Z,7.40
2023-03-01T18:11:47.850Z,7.50
2023-03-01T18:14:35.055Z,7.30
2023-03-01T18:17:22.895Z,7.40
2023-03-01T18:20:10.108Z,7.30
2023-03-01T18:22:55.690Z,7.50
2023-03-01T18:25:41.516Z,7.50
2023-03-01T18:28:27.102Z,7.60
2023-03-01T18:31:18.582Z,7.70
2023-03-01T18:34:04.366Z,7.60
2023-03-01T18:37:08.023Z,7.90
2023-03-01T18:39:54.811Z,7.70
2023-03-01T18:42:40.604Z,7.70
2023-03-01T18:45:26.450Z,7.50
2023-03-01T18:48:14.533Z,7.50
2023-03-01T18:51:08.686Z,7.30
2023-03-01T18:53:54.882Z,7.30
2023-03-01T18:56:40.549Z,7.40
2023-03-01T18:59:26.712Z,7.40
2023-03-01T19:02:15.506Z,7.30
2023-03-01T19:05:03.008Z,7.10
2023-03-01T19:07:49.443Z,7.10
2023-03-01T19:10:35.257Z,6.80
2023-03-01T19:13:21.167Z,6.70
2023-03-01T19:16:09.084Z,6.60
2023-03-01T19:18:57.234Z,6.50
2023-03-01T19:21:47.020Z,6.40
2023-03-01T19:24:36.702Z,6.50
2023-03-01T19:27:22.155Z,6.30
2023-03-01T19:30:09.236Z,6.40
2023-03-01T19:32:54.999Z,6.50
2023-03-01T19:35:40.533Z,5.90
2023-03-01T19:38:28.519Z,5.80
2023-03-01T19:41:16.754Z,5.50
2023-03-01T19:44:04.580Z,5.80
2023-03-01T19:46:52.091Z,5.90
2023-03-01T19:49:38.223Z,5.70
2023-03-01T19:52:24.367Z,5.80
2023-03-01T19:55:12.258Z,6.10
2023-03-01T19:57:58.474Z,6.10
2023-03-01T20:00:45.499Z,6.10
2023-03-01T20:03:34.250Z,6.00
2023-03-01T20:06:21.718Z,6.10
2023-03-01T20:09:21.015Z,6.00
2023-03-01T20:12:09.054Z,6.00
2023-03-01T20:14:56.957Z,5.70
2023-03-01T20:17:42.769Z,5.50
2023-03-01T20:20:28.835Z,5.70
2023-03-01T20:23:14.933Z,5.60
2023-03-01T20:26:06.249Z,5.70
2023-03-01T20:28:56.902Z,6.00
2023-03-01T20:31:42.822Z,6.00
2023-03-01T20:34:28.650Z,5.70
2023-03-01T20:37:14.710Z,5.90
2023-03-01T20:40:00.808Z,5.60
2023-03-01T20:42:46.515Z,5.50
2023-03-01T20:45:34.188Z,5.20
2023-03-01T20:48:20.073Z,5.20
2023-03-01T20:51:06.002Z,5.20
2023-03-01T20:53:51.515Z,5.20
2023-03-01T20:56:37.845Z,5.20
2023-03-01T20:59:23.936Z,5.40
2023-03-01T21:02:12.006Z,5.50
2023-03-01T21:04:57.367Z,5.40
2023-03-01T21:07:43.052Z,5.10
2023-03-01T21:10:28.934Z,5.10
2023-03-01T21:13:14.867Z,5.10
2023-03-01T21:16:03.447Z,4.90
2023-03-01T21:18:50.217Z,5.20
2023-03-01T21:21:35.940Z,4.80
2023-03-01T21:24:21.397Z,4.40
2023-03-01T21:27:06.906Z,4.40
2023-03-01T21:29:52.650Z,4.50
2023-03-01T21:32:38.399Z,4.50
2023-03-01T21:35:25.348Z,4.40
2023-03-01T21:38:10.943Z,4.40
2023-03-01T21:40:56.577Z,4.20
2023-03-01T21:43:44.319Z,4.10
2023-03-01T21:46:31.430Z,4.40
2023-03-01T21:49:17.533Z,4.50
2023-03-01T21:52:05.317Z,4.70
2023-03-01T21:54:51.329Z,4.60
2023-03-01T21:57:43.704Z,4.80
2023-03-01T22:00:29.508Z,5.00
2023-03-01T22:03:15.606Z,5.10
2023-03-01T22:06:02.501Z,5.20
2023-03-01T22:08:52.156Z,5.00
2023-03-01T22:11:40.374Z,4.90
2023-03-01T22:14:26.618Z,4.90
2023-03-01T22:17:12.263Z,4.90
2023-03-01T22:19:58.654Z,4.90
2023-03-01T22:22:47.764Z,4.90
2023-03-01T22:25:44.577Z,4.70
2023-03-01T22:28:30.647Z,4.60
2023-03-01T22:31:16.694Z,4.80
2023-03-01T22:34:02.319Z,4.70
2023-03-01T22:36:48.522Z,4.80
2023-03-01T22:39:34.296Z,4.90
2023-03-01T22:42:21.796Z,5.10
2023-03-01T22:45:08.163Z,5.00
2023-03-01T22:47:53.790Z,5.10
2023-03-01T22:50:42.483Z,5.20
2023-03-01T22:53:28.469Z,5.10
2023-03-01T22:56:16.124Z,5.40
2023-03-01T22:59:03.966Z,5.00
2023-03-01T23:01:50.480Z,5.00
2023-03-01T23:04:35.941Z,5.10
2023-03-01T23:07:22.203Z,5.20
2023-03-01T23:10:08.475Z,5.20
2023-03-01T23:12:54.691Z,5.20
2023-03-01T23:15:44.793Z,5.20
2023-03-01T23:18:30.549Z,4.70
2023-03-01T23:21:19.128Z,4.20
2023-03-01T23:24:05.681Z,4.20
2023-03-01T23:26:53.379Z,4.30
2023-03-01T23:29:38.861Z,4.20
2023-03-01T23:32:26.102Z,4.40
2023-03-01T23:35:11.964Z,4.40
2023-03-01T23:37:57.948Z,4.20
2023-03-01T23:40:44.094Z,4.40
2023-03-01T23:43:30.588Z,4.10
2023-03-01T23:46:17.199Z,3.90
2023-03-01T23:49:04.680Z,4.10
2023-03-01T23:51:51.113Z,3.90
2023-03-01T23:54:36.775Z,3.70
2023-03-01T23:57:22.562Z,3.80
